Time;durP1;ratioP1;P1;durP2;ratioP2;P2;SDS_P1;SDS_P2;PMS_P1;PMS_P2;Temp;Humidity;BMP_temperature;BMP_pressure;BME280_temperature;BME280_humidity;BME280_pressure;Samples;Min_cycle;Max_cycle;Signal;HPM_P1;HPM_P2
2021/12/04 00:02:49;;;;;;;13.85;6.63;;;22.40;32.50;;;;;;6154408;28;83709;-75
2021/12/04 00:05:55;;;;;;;10.25;6.10;;;22.40;33.00;;;;;;6144688;28;80527;-75
2021/12/04 00:09:01;;;;;;;10.02;6.10;;;22.40;32.80;;;;;;6153147;28;80086;-75
2021/12/04 00:12:03;;;;;;;11.35;6.80;;;22.40;32.50;;;;;;6147071;28;80401;-74
2021/12/04 00:15:04;;;;;;;11.80;6.40;;;22.40;32.30;;;;;;6143660;28;80783;-72
2021/12/04 00:18:04;;;;;;;9.98;5.68;;;22.40;32.70;;;;;;6155808;28;80189;-75
2021/12/04 00:21:05;;;;;;;9.32;6.05;;;22.40;32.00;;;;;;6158507;28;80895;-73
2021/12/04 00:24:05;;;;;;;12.90;6.25;;;22.40;32.00;;;;;;6158494;28;80519;-74
2021/12/04 00:27:06;;;;;;;10.93;6.05;;;22.30;32.20;;;;;;6156776;28;81104;-72
2021/12/04 00:30:06;;;;;;;9.50;5.38;;;22.40;32.80;;;;;;6143535;28;83455;-71
2021/12/04 00:33:14;;;;;;;9.50;5.25;;;22.40;31.90;;;;;;6154411;28;81295;-72
2021/12/04 00:49:24;;;;;;;10.07;5.90;;;22.30;31.80;;;;;;6155015;28;80502;-74
2021/12/04 00:52:24;;;;;;;10.10;5.00;;;22.30;32.00;;;;;;6154316;28;81377;-72
2021/12/04 00:55:25;;;;;;;11.98;6.20;;;22.30;32.10;;;;;;6152385;28;81149;-71
2021/12/04 00:58:25;;;;;;;7.72;5.07;;;22.30;32.00;;;;;;6154322;28;80275;-70
2021/12/04 01:01:26;;;;;;;10.00;5.05;;;22.30;32.40;;;;;;6151348;28;81956;-72
2021/12/04 01:04:26;;;;;;;10.70;5.82;;;22.30;31.70;;;;;;6162213;28;80043;-72
2021/12/04 01:07:27;;;;;;;8.65;5.25;;;22.30;31.80;;;;;;6182009;28;80153;-72
2021/12/04 01:10:27;;;;;;;10.95;5.47;;;22.20;31.80;;;;;;6148952;28;80571;-72
2021/12/04 01:13:28;;;;;;;11.52;5.97;;;22.20;32.30;;;;;;6175490;28;81439;-72
2021/12/04 01:16:28;;;;;;;9.88;5.25;;;22.20;32.10;;;;;;6155402;28;83336;-72
2021/12/04 01:19:29;;;;;;;8.38;5.30;;;22.20;31.80;;;;;;6155558;28;82694;-72
2021/12/04 01:22:33;;;;;;;8.88;5.57;;;22.20;32.10;;;;;;6154604;28;80592;-72
2021/12/04 01:25:36;;;;;;;8.40;4.88;;;22.20;31.80;;;;;;6157283;28;80638;-72
2021/12/04 01:28:36;;;;;;;8.13;4.78;;;22.20;31.60;;;;;;6155883;28;81142;-73
2021/12/04 01:31:37;;;;;;;13.05;5.35;;;22.20;32.00;;;;;;6156259;28;80656;-73
2021/12/04 01:34:37;;;;;;;8.80;5.05;;;22.20;31.80;;;;;;6139971;28;81213;-73
2021/12/04 01:37:38;;;;;;;9.32;5.38;;;22.20;32.00;;;;;;6156139;28;81545;-73
2021/12/04 01:40:38;;;;;;;8.82;4.70;;;22.20;31.80;;;;;;6155151;28;81333;-73
2021/12/04 01:43:39;;;;;;;6.97;4.07;;;22.20;31.70;;;;;;6158131;28;80496;-73
2021/12/04 01:46:41;;;;;;;7.45;4.45;;;22.20;31.80;;;;;;6148770;28;81439;-74
2021/12/04 01:49:42;;;;;;;6.00;4.28;;;22.20;32.70;;;;;;6154127;28;80523;-73
2021/12/04 01:52:43;;;;;;;7.28;4.32;;;22.20;32.40;;;;;;6148953;28;87619;-73
2021/12/04 01:55:43;;;;;;;7.90;4.55;;;22.20;32.00;;;;;;6154866;28;80455;-73
2021/12/04 01:58:44;;;;;;;8.68;5.03;;;22.20;32.30;;;;;;6155198;28;80835;-72
2021/12/04 02:01:44;;;;;;;7.93;4.65;;;22.20;32.50;;;;;;6154971;28;82232;-72
2021/12/04 02:04:45;;;;;;;6.72;4.32;;;22.20;32.40;;;;;;6153803;28;80745;-73
2021/12/04 02:07:45;;;;;;;7.38;4.30;;;22.20;32.40;;;;;;6154209;28;80353;-72
2021/12/04 02:10:46;;;;;;;8.15;5.03;;;22.20;32.30;;;;;;6156073;28;80983;-73
2021/12/04 02:13:46;;;;;;;7.47;4.15;;;22.20;32.00;;;;;;6155217;28;80168;-71
2021/12/04 02:16:47;;;;;;;6.95;4.25;;;22.20;32.40;;;;;;6154744;28;80822;-71
2021/12/04 02:19:47;;;;;;;7.70;4.38;;;22.10;32.20;;;;;;6154290;28;80587;-72
2021/12/04 02:22:48;;;;;;;8.45;4.47;;;22.20;32.20;;;;;;6154456;28;80505;-72
2021/12/04 02:25:48;;;;;;;6.78;4.43;;;22.10;31.60;;;;;;6154720;28;80487;-73
2021/12/04 02:28:49;;;;;;;9.38;4.00;;;22.10;31.90;;;;;;6155373;28;80343;-72
2021/12/04 02:31:49;;;;;;;7.07;4.47;;;22.10;31.80;;;;;;6152828;28;81773;-72
2021/12/04 02:34:50;;;;;;;6.50;4.22;;;22.10;32.00;;;;;;6154252;28;81554;-72
2021/12/04 02:37:50;;;;;;;8.07;4.43;;;22.10;31.20;;;;;;6154543;28;81450;-72
2021/12/04 02:40:51;;;;;;;5.60;3.72;;;22.10;31.20;;;;;;6150451;28;83508;-72
2021/12/04 02:43:51;;;;;;;8.75;4.15;;;22.10;32.00;;;;;;6154873;28;83585;-71
2021/12/04 02:46:52;;;;;;;6.90;4.25;;;22.10;32.00;;;;;;6153686;28;80539;-72
2021/12/04 02:49:52;;;;;;;7.75;4.10;;;22.10;31.70;;;;;;6147852;28;83028;-72
2021/12/04 02:52:53;;;;;;;7.63;3.70;;;22.10;31.80;;;;;;6150403;28;80265;-71
2021/12/04 02:55:54;;;;;;;8.23;4.18;;;22.00;31.20;;;;;;6145342;28;83593;-71
2021/12/04 02:59:00;;;;;;;6.70;4.07;;;22.10;31.20;;;;;;6147108;28;80336;-71
2021/12/04 03:02:01;;;;;;;5.88;3.72;;;22.10;31.10;;;;;;6157786;28;80083;-71
2021/12/04 03:05:06;;;;;;;6.40;3.55;;;22.10;31.50;;;;;;6150525;28;80826;-71
2021/12/04 03:08:07;;;;;;;7.50;3.95;;;22.10;31.20;;;;;;6157153;28;80343;-71
2021/12/04 03:11:08;;;;;;;7.10;4.10;;;22.10;31.40;;;;;;6156039;28;80840;-71
2021/12/04 03:14:08;;;;;;;7.38;3.53;;;22.10;30.00;;;;;;6156973;28;80366;-72
2021/12/04 03:17:09;;;;;;;6.95;4.05;;;22.10;30.00;;;;;;6159732;28;80165;-71
2021/12/04 03:20:11;;;;;;;5.50;3.70;;;22.20;29.90;;;;;;6158423;28;80033;-72
2021/12/04 03:23:16;;;;;;;5.43;3.35;;;22.20;29.50;;;;;;6155807;28;82858;-72
2021/12/04 03:26:17;;;;;;;8.32;4.13;;;22.30;29.50;;;;;;6158532;28;83617;-73
2021/12/04 03:29:19;;;;;;;5.05;3.80;;;22.40;29.70;;;;;;6158029;28;80665;-72
2021/12/04 03:41:59;;;;;;;6.20;3.75;;;22.60;29.40;;;;;;6141703;28;80689;-71
2021/12/04 03:44:59;;;;;;;5.38;3.40;;;22.60;29.40;;;;;;6158982;28;80265;-71
2021/12/04 03:48:28;;;;;;;6.32;3.50;;;22.70;29.30;;;;;;6157169;28;80612;-72
2021/12/04 03:51:29;;;;;;;5.80;3.63;;;22.70;29.20;;;;;;6156529;28;86106;-71
2021/12/04 03:54:29;;;;;;;5.85;3.83;;;22.70;29.30;;;;;;6159856;28;80360;-72
2021/12/04 03:57:30;;;;;;;4.03;2.97;;;22.70;29.30;;;;;;6156922;28;81540;-72
2021/12/04 04:00:30;;;;;;;6.95;3.83;;;22.80;29.20;;;;;;6154677;28;80842;-72
2021/12/04 04:03:31;;;;;;;5.68;3.17;;;22.80;29.20;;;;;;6147826;28;80573;-72
2021/12/04 04:06:31;;;;;;;6.35;4.07;;;22.80;29.10;;;;;;6157506;28;80793;-72
2021/12/04 04:09:32;;;;;;;6.95;3.60;;;22.80;29.10;;;;;;6155619;28;80655;-72
2021/12/04 04:12:32;;;;;;;5.97;3.53;;;22.80;29.10;;;;;;6146918;28;80936;-72
2021/12/04 04:15:33;;;;;;;7.50;3.97;;;22.90;29.20;;;;;;6156041;28;81432;-71
2021/12/04 04:18:33;;;;;;;5.75;3.35;;;22.90;28.90;;;;;;6156557;28;80675;-72
2021/12/04 04:21:41;;;;;;;5.18;3.22;;;22.90;29.00;;;;;;6152272;28;80819;-72
2021/12/04 04:24:42;;;;;;;6.35;3.63;;;22.90;28.90;;;;;;6147180;28;81065;-72
2021/12/04 04:27:42;;;;;;;6.03;3.35;;;22.90;28.80;;;;;;6154722;28;81802;-71
2021/12/04 04:30:43;;;;;;;5.25;3.60;;;22.90;28.80;;;;;;6156629;28;80605;-72
2021/12/04 04:33:44;;;;;;;6.40;3.55;;;22.90;28.80;;;;;;6157325;28;80675;-72
2021/12/04 04:36:57;;;;;;;7.18;3.80;;;22.90;28.80;;;;;;6157661;28;80242;-73
2021/12/04 05:13:04;;;;;;;4.95;3.20;;;23.10;28.40;;;;;;6155636;28;84947;-74
2021/12/04 05:16:12;;;;;;;5.60;3.38;;;23.10;28.30;;;;;;6156049;28;81460;-76
2021/12/04 05:19:25;;;;;;;4.07;3.22;;;23.10;28.20;;;;;;6159074;28;80533;-77
2021/12/04 05:22:25;;;;;;;4.72;3.25;;;23.10;28.00;;;;;;6154670;28;80163;-69
2021/12/04 05:25:26;;;;;;;4.47;3.00;;;23.10;28.10;;;;;;6154358;28;80578;-68
2021/12/04 05:28:26;;;;;;;5.15;2.80;;;23.10;28.10;;;;;;6140504;28;83468;-68
2021/12/04 05:31:27;;;;;;;4.97;3.03;;;23.20;28.10;;;;;;6156671;28;80470;-68
2021/12/04 05:34:28;;;;;;;4.85;2.80;;;23.20;28.10;;;;;;6149555;28;81485;-68
2021/12/04 05:37:29;;;;;;;5.20;3.25;;;23.20;28.10;;;;;;6154709;28;80830;-68
2021/12/04 05:40:29;;;;;;;3.55;2.60;;;23.20;27.90;;;;;;6151971;28;80621;-69
2021/12/04 05:43:30;;;;;;;5.75;3.10;;;23.20;27.90;;;;;;6155651;28;80630;-69
2021/12/04 05:46:36;;;;;;;4.45;2.90;;;23.20;27.90;;;;;;6145146;28;80430;-67
2021/12/04 05:49:58;;;;;;;5.15;2.95;;;23.20;27.90;;;;;;6153841;28;80526;-67
2021/12/04 05:56:02;;;;;;;4.60;3.05;;;23.30;28.50;;;;;;6151105;28;80511;-67
2021/12/04 05:59:02;;;;;;;6.38;2.92;;;23.30;28.40;;;;;;6155426;28;81645;-65
2021/12/04 06:02:03;;;;;;;3.97;2.42;;;23.40;28.80;;;;;;6149147;28;80866;-66
2021/12/04 06:05:03;;;;;;;3.90;2.78;;;23.30;29.50;;;;;;6157141;28;80477;-69
2021/12/04 06:08:04;;;;;;;4.97;1.92;;;23.30;30.70;;;;;;6155063;28;81255;-67
2021/12/04 06:11:04;;;;;;;3.42;1.98;;;23.20;31.40;;;;;;6156408;28;80399;-66
2021/12/04 06:14:05;;;;;;;3.22;1.98;;;23.20;32.20;;;;;;6154991;28;80316;-67
2021/12/04 06:17:05;;;;;;;3.20;2.03;;;23.20;32.90;;;;;;6152240;28;80478;-67
2021/12/04 06:23:25;;;;;;;2.90;1.70;;;23.10;35.00;;;;;;6155202;28;80694;-68
2021/12/04 06:26:26;;;;;;;3.22;2.10;;;23.10;36.00;;;;;;6157139;28;81025;-69
2021/12/04 06:29:27;;;;;;;5.13;2.42;;;23.10;36.70;;;;;;6151775;28;80475;-68
2021/12/04 06:32:27;;;;;;;4.30;2.88;;;23.00;37.00;;;;;;6155242;28;80204;-67
2021/12/04 06:35:28;;;;;;;5.72;3.15;;;23.00;37.50;;;;;;6160454;28;82431;-66
2021/12/04 06:38:28;;;;;;;4.03;2.45;;;23.00;38.20;;;;;;6161449;28;80538;-67
2021/12/04 06:41:29;;;;;;;3.42;2.33;;;22.90;38.10;;;;;;6156443;28;81709;-67
2021/12/04 06:44:30;;;;;;;3.40;2.20;;;22.90;38.60;;;;;;6158583;28;80149;-66
2021/12/04 06:47:31;;;;;;;2.70;1.90;;;22.90;39.40;;;;;;6152592;28;80621;-68
2021/12/04 06:56:39;;;;;;;2.72;1.90;;;22.80;40.80;;;;;;6154989;28;81029;-67
2021/12/04 06:59:41;;;;;;;3.35;2.22;;;22.80;41.30;;;;;;6159389;28;80831;-64
2021/12/04 07:02:42;;;;;;;9.20;2.42;;;22.80;40.70;;;;;;6158895;28;80426;-66
2021/12/04 07:05:42;;;;;;;5.72;2.35;;;22.80;40.30;;;;;;6156947;28;80433;-66
2021/12/04 07:08:43;;;;;;;3.75;2.25;;;22.90;40.00;;;;;;6158283;28;80808;-66
2021/12/04 07:11:43;;;;;;;4.43;2.47;;;22.90;39.50;;;;;;6159249;28;80839;-66
2021/12/04 07:14:44;;;;;;;4.25;2.38;;;22.80;39.20;;;;;;6151503;28;80629;-68
2021/12/04 07:17:44;;;;;;;5.82;2.85;;;22.80;38.90;;;;;;6159891;28;80301;-68
2021/12/04 07:20:45;;;;;;;3.97;2.40;;;22.80;38.60;;;;;;6155286;28;80746;-66
2021/12/04 07:23:45;;;;;;;5.18;2.80;;;22.80;38.20;;;;;;6162082;28;80390;-67
2021/12/04 07:26:46;;;;;;;6.22;3.33;;;22.80;38.50;;;;;;6154710;28;80522;-67
2021/12/04 07:29:47;;;;;;;7.22;3.33;;;22.80;38.30;;;;;;6157798;28;80420;-68
2021/12/04 07:32:47;;;;;;;8.18;3.53;;;22.80;38.80;;;;;;6158983;28;80727;-67
2021/12/04 07:35:48;;;;;;;73.55;31.88;;;22.80;38.60;;;;;;6154493;28;80327;-67
2021/12/04 07:38:48;;;;;;;146.38;71.05;;;22.80;39.50;;;;;;6153241;28;83158;-67
2021/12/04 07:41:49;;;;;;;282.98;131.45;;;22.80;39.10;;;;;;6151276;28;83523;-67
2021/12/04 07:44:49;;;;;;;301.00;140.90;;;22.80;39.40;;;;;;6150871;28;85508;-67
2021/12/04 07:47:50;;;;;;;241.68;114.32;;;22.80;39.70;;;;;;6152270;28;86557;-67
2021/12/04 07:50:50;;;;;;;189.40;91.03;;;22.90;40.00;;;;;;6144705;28;87188;-67
2021/12/04 07:53:51;;;;;;;160.93;73.85;;;22.80;40.10;;;;;;6151981;28;84123;-66
2021/12/04 07:56:51;;;;;;;129.88;58.95;;;22.80;40.20;;;;;;6145416;28;84238;-66
2021/12/04 07:59:52;;;;;;;107.93;48.67;;;22.80;39.60;;;;;;6152938;28;83535;-67
2021/12/04 08:02:52;;;;;;;95.78;43.60;;;22.90;39.20;;;;;;6153177;28;83067;-66
2021/12/04 08:05:53;;;;;;;88.03;39.95;;;22.90;39.10;;;;;;6154500;28;83251;-66
2021/12/04 08:08:58;;;;;;;75.78;34.42;;;22.80;38.90;;;;;;6151278;28;84664;-66
2021/12/04 08:11:59;;;;;;;61.43;28.93;;;22.80;38.70;;;;;;6138429;28;84153;-67
2021/12/04 08:14:59;;;;;;;51.63;25.90;;;22.80;38.90;;;;;;6146355;28;83293;-67
2021/12/04 08:18:00;;;;;;;51.25;25.23;;;22.80;38.80;;;;;;6151414;28;83434;-68
2021/12/04 08:21:00;;;;;;;42.63;21.17;;;22.80;39.00;;;;;;6152358;28;83242;-71
2021/12/04 08:24:01;;;;;;;43.08;19.48;;;22.90;39.40;;;;;;6154419;28;84483;-69
2021/12/04 08:27:02;;;;;;;75.25;38.20;;;22.80;39.10;;;;;;6153865;28;83161;-69
2021/12/04 08:30:03;;;;;;;132.35;64.63;;;22.80;39.90;;;;;;6151108;28;84056;-69
2021/12/04 08:33:03;;;;;;;190.57;92.53;;;22.90;40.90;;;;;;6151936;28;84617;-68
2021/12/04 08:36:04;;;;;;;255.43;124.88;;;22.80;41.00;;;;;;6150586;28;83533;-69
2021/12/04 08:39:05;;;;;;;274.33;133.65;;;22.80;41.70;;;;;;6149481;28;86369;-69
2021/12/04 08:42:05;;;;;;;230.35;108.75;;;22.80;41.70;;;;;;6150280;28;86472;-68
2021/12/04 08:45:06;;;;;;;182.68;87.22;;;22.90;41.70;;;;;;6149262;28;85768;-69
2021/12/04 08:48:06;;;;;;;139.73;66.82;;;22.80;41.80;;;;;;6153343;28;86282;-67
2021/12/04 08:51:07;;;;;;;110.60;51.97;;;22.80;42.00;;;;;;6153472;28;83131;-66
2021/12/04 08:54:07;;;;;;;88.35;44.80;;;22.80;42.30;;;;;;6142610;28;83064;-67
2021/12/04 08:57:08;;;;;;;87.97;41.28;;;22.80;41.90;;;;;;6150495;28;84228;-66
2021/12/04 09:00:08;;;;;;;73.35;35.05;;;22.80;42.10;;;;;;6154040;28;83214;-65
2021/12/04 09:03:09;;;;;;;63.22;28.50;;;22.70;42.80;;;;;;6152913;28;83102;-65
2021/12/04 09:06:09;;;;;;;55.42;25.60;;;22.70;42.40;;;;;;6152121;28;83638;-65
2021/12/04 09:09:10;;;;;;;54.88;22.92;;;22.70;42.60;;;;;;6151132;28;83286;-66
2021/12/04 09:12:10;;;;;;;43.78;20.33;;;22.70;43.10;;;;;;6153429;28;83040;-64
2021/12/04 09:15:11;;;;;;;35.55;17.98;;;22.70;42.80;;;;;;6152538;28;83949;-66
2021/12/04 09:18:11;;;;;;;38.42;17.23;;;22.70;42.90;;;;;;6138801;28;83224;-67
2021/12/04 09:21:12;;;;;;;32.30;14.00;;;22.70;42.70;;;;;;6147688;28;83197;-73
2021/12/04 09:24:15;;;;;;;25.33;12.15;;;22.70;42.60;;;;;;6142626;28;86631;-68
2021/12/04 09:37:01;;;;;;;17.67;8.10;;;22.80;42.10;;;;;;6150349;28;82814;-70
2021/12/04 10:22:30;;;;;;;10.25;5.13;;;23.10;43.70;;;;;;6158277;28;80837;-68
2021/12/04 10:35:00;;;;;;;8.75;3.63;;;23.00;43.50;;;;;;6160674;28;82566;-68
2021/12/04 10:38:06;;;;;;;6.60;3.65;;;23.10;43.50;;;;;;6159289;28;80572;-66
2021/12/04 10:41:07;;;;;;;12.55;3.22;;;23.10;43.50;;;;;;6159851;28;81203;-68
2021/12/04 10:44:07;;;;;;;4.80;3.13;;;23.10;43.00;;;;;;6158906;28;80837;-68
2021/12/04 10:47:11;;;;;;;8.40;3.70;;;23.10;42.80;;;;;;6156304;28;87604;-68
2021/12/04 10:53:32;;;;;;;5.93;3.33;;;23.10;42.80;;;;;;6159356;28;80822;-68
2021/12/04 11:03:25;;;;;;;6.97;3.35;;;23.00;42.90;;;;;;6153359;28;81586;-65
2021/12/04 11:23:20;;;;;;;3.80;2.70;;;23.60;42.10;;;;;;6148911;28;81722;-66
2021/12/04 11:42:53;;;;;;;4.35;2.30;;;23.80;42.00;;;;;;6135178;28;83830;-71
2021/12/04 11:46:17;;;;;;;5.63;2.80;;;23.90;42.10;;;;;;6158430;28;80560;-69
2021/12/04 11:49:18;;;;;;;4.57;2.40;;;24.00;42.20;;;;;;6156504;28;86202;-71
2021/12/04 11:52:18;;;;;;;5.32;3.10;;;24.10;41.80;;;;;;6156378;28;81575;-73
2021/12/04 11:55:20;;;;;;;4.05;2.60;;;24.10;41.80;;;;;;6154774;28;82176;-73
2021/12/04 11:58:20;;;;;;;4.07;2.47;;;24.10;41.90;;;;;;6147229;28;81248;-72
2021/12/04 12:01:21;;;;;;;3.78;2.47;;;24.00;41.90;;;;;;6151245;28;80206;-77
2021/12/04 12:04:22;;;;;;;9.75;3.15;;;24.00;41.90;;;;;;6151889;28;80731;-79
2021/12/04 12:07:22;;;;;;;3.60;2.80;;;24.00;41.90;;;;;;6140175;28;81177;-76
2021/12/04 12:10:25;;;;;;;4.38;2.80;;;24.00;41.90;;;;;;6155726;28;80463;-75
2021/12/04 12:13:26;;;;;;;5.18;2.75;;;24.00;42.10;;;;;;6150119;28;80667;-76
2021/12/04 12:16:27;;;;;;;4.57;2.00;;;23.90;42.20;;;;;;6153913;28;80358;-77
2021/12/04 12:19:28;;;;;;;4.35;2.60;;;23.90;42.20;;;;;;6154131;28;81645;-72
2021/12/04 12:22:38;;;;;;;3.70;2.45;;;24.00;42.10;;;;;;6149531;28;81339;-73
2021/12/04 12:32:21;;;;;;;5.88;2.70;;;23.80;42.60;;;;;;6152258;28;80878;-75
2021/12/04 12:38:22;;;;;;;6.30;2.97;;;23.70;42.90;;;;;;6155008;28;80878;-73
2021/12/04 12:41:22;;;;;;;2.45;2.03;;;23.70;42.60;;;;;;6173152;28;80510;-74
2021/12/04 12:44:23;;;;;;;3.10;2.10;;;23.70;43.10;;;;;;6170544;28;83653;-71
2021/12/04 12:47:23;;;;;;;4.28;2.65;;;23.60;42.90;;;;;;6157345;28;80531;-73
2021/12/04 12:50:24;;;;;;;5.22;2.90;;;23.60;43.40;;;;;;6155409;28;81495;-75
2021/12/04 12:53:25;;;;;;;3.53;2.10;;;23.60;43.40;;;;;;6156580;28;80753;-74
2021/12/04 12:56:26;;;;;;;4.43;2.35;;;23.50;43.60;;;;;;6152127;28;80463;-76
2021/12/04 13:11:36;;;;;;;2.88;1.80;;;23.50;43.90;;;;;;6157496;28;80459;-73
2021/12/04 13:12:46;;;;;;;4.47;2.45;;;23.40;44.00;;;;;;6155592;28;84986;-70
2021/12/04 13:15:47;;;;;;;3.88;2.78;;;23.40;43.70;;;;;;6155022;28;81996;-70
2021/12/04 13:18:47;;;;;;;2.40;2.05;;;23.30;44.10;;;;;;6155890;28;81420;-70
2021/12/04 13:21:48;;;;;;;11.07;3.03;;;23.30;43.80;;;;;;6153627;28;80486;-69
2021/12/04 13:24:48;;;;;;;3.67;2.53;;;23.20;43.20;;;;;;6154536;28;80695;-72
2021/12/04 13:30:49;;;;;;;3.85;2.47;;;23.30;43.20;;;;;;6152859;28;81241;-70
2021/12/04 13:33:50;;;;;;;3.17;2.10;;;23.30;43.10;;;;;;6155464;28;81898;-71
2021/12/04 13:36:51;;;;;;;3.15;1.83;;;23.30;43.10;;;;;;6163049;28;80833;-72
2021/12/04 13:39:51;;;;;;;2.15;1.55;;;23.40;43.40;;;;;;6150233;28;80483;-66
2021/12/04 13:42:52;;;;;;;3.20;2.10;;;23.40;42.50;;;;;;6155660;28;80407;-65
2021/12/04 13:45:52;;;;;;;3.13;2.03;;;23.40;42.30;;;;;;6162637;28;81383;-66
2021/12/04 13:48:53;;;;;;;4.70;2.17;;;23.40;42.30;;;;;;6154374;28;82663;-65
2021/12/04 13:51:55;;;;;;;5.00;2.10;;;23.40;42.20;;;;;;6156558;28;81794;-65
2021/12/04 13:54:55;;;;;;;3.78;2.10;;;23.40;41.60;;;;;;6164950;28;81459;-65
2021/12/04 13:57:57;;;;;;;4.85;2.10;;;23.40;41.60;;;;;;6164706;28;81678;-64
2021/12/04 14:00:57;;;;;;;7.18;2.35;;;23.40;41.70;;;;;;6155121;28;82831;-65
2021/12/04 14:03:58;;;;;;;4.07;2.50;;;23.40;41.00;;;;;;6155049;28;81398;-65
2021/12/04 14:06:58;;;;;;;3.50;2.25;;;23.40;41.20;;;;;;6155541;28;80867;-65
2021/12/04 14:09:59;;;;;;;5.13;2.60;;;23.40;40.90;;;;;;6150658;28;81544;-66
2021/12/04 14:12:59;;;;;;;5.25;2.78;;;23.40;40.80;;;;;;6146250;28;80395;-67
2021/12/04 14:16:00;;;;;;;3.53;2.40;;;23.40;41.50;;;;;;6155700;28;80731;-66
2021/12/04 14:19:00;;;;;;;3.85;2.45;;;23.40;40.40;;;;;;6152678;28;81559;-65
2021/12/04 14:22:01;;;;;;;4.57;2.30;;;23.40;40.40;;;;;;6155472;28;80274;-66
2021/12/04 14:25:03;;;;;;;4.45;2.28;;;23.40;40.30;;;;;;6154377;28;80351;-67
2021/12/04 14:28:03;;;;;;;2.92;1.90;;;23.40;40.60;;;;;;6155468;28;80544;-68
2021/12/04 14:31:04;;;;;;;3.78;2.30;;;23.40;40.90;;;;;;6156174;28;80909;-67
2021/12/04 14:34:04;;;;;;;4.03;2.15;;;23.40;41.00;;;;;;6149687;28;80875;-68
2021/12/04 14:37:05;;;;;;;3.38;2.20;;;23.40;41.40;;;;;;6148612;28;82456;-70
2021/12/04 14:40:05;;;;;;;3.38;2.30;;;23.30;41.00;;;;;;6153220;28;80240;-69
2021/12/04 14:43:07;;;;;;;4.43;2.40;;;23.30;41.70;;;;;;6156151;28;80209;-67
2021/12/04 14:46:07;;;;;;;2.83;2.05;;;23.30;42.20;;;;;;6150017;28;80737;-69
2021/12/04 14:49:09;;;;;;;9.27;2.42;;;23.30;42.70;;;;;;6152481;28;81345;-67
2021/12/04 14:52:10;;;;;;;5.35;2.83;;;23.30;43.00;;;;;;6154478;28;80769;-71
2021/12/04 14:55:11;;;;;;;4.25;2.47;;;23.20;42.90;;;;;;6147984;28;80463;-71
2021/12/04 14:58:13;;;;;;;4.22;2.55;;;23.20;42.70;;;;;;6153110;28;80371;-71
2021/12/04 15:01:13;;;;;;;4.78;2.63;;;23.10;42.70;;;;;;6154051;28;81066;-70
2021/12/04 15:04:14;;;;;;;4.43;2.55;;;23.10;42.90;;;;;;6152282;28;80826;-70
2021/12/04 15:07:14;;;;;;;11.63;3.78;;;23.10;42.80;;;;;;6158663;28;81573;-68
2021/12/04 15:10:15;;;;;;;6.32;3.40;;;23.00;42.60;;;;;;6164399;28;81231;-69
2021/12/04 15:13:17;;;;;;;3.70;2.65;;;23.00;42.80;;;;;;6160218;28;81133;-69
2021/12/04 15:16:21;;;;;;;5.18;3.03;;;23.00;43.00;;;;;;6154652;28;80784;-70
2021/12/04 15:19:27;;;;;;;5.20;3.17;;;23.10;43.30;;;;;;6154935;28;81754;-69
2021/12/04 15:22:35;;;;;;;7.13;3.58;;;23.10;43.10;;;;;;6156813;28;82837;-71
2021/12/04 15:25:36;;;;;;;5.32;3.05;;;23.10;43.40;;;;;;6152659;28;80764;-69
2021/12/04 15:28:36;;;;;;;6.57;3.17;;;23.10;43.80;;;;;;6158654;28;81989;-68
2021/12/04 15:31:37;;;;;;;5.47;3.42;;;23.10;43.70;;;;;;6156767;28;81843;-69
2021/12/04 15:34:40;;;;;;;4.57;2.97;;;23.00;43.80;;;;;;6157821;28;82012;-69
2021/12/04 15:37:43;;;;;;;6.13;3.20;;;23.00;44.00;;;;;;6158840;28;81144;-69
2021/12/04 15:41:11;;;;;;;4.60;2.95;;;23.00;44.10;;;;;;6156523;28;81387;-70
2021/12/04 15:47:42;;;;;;;6.03;3.25;;;23.00;44.40;;;;;;6153542;28;80380;-66
2021/12/04 15:50:53;;;;;;;4.15;2.88;;;23.00;44.40;;;;;;6151544;28;87729;-66
2021/12/04 15:53:55;;;;;;;4.50;2.58;;;23.00;44.10;;;;;;6160269;28;81407;-64
2021/12/04 15:56:56;;;;;;;4.15;2.83;;;23.00;44.00;;;;;;6157146;28;80453;-65
2021/12/04 15:59:58;;;;;;;5.88;3.00;;;23.00;43.90;;;;;;6156077;28;80322;-67
2021/12/04 16:02:59;;;;;;;5.43;3.22;;;23.00;43.80;;;;;;6157437;28;81815;-66
2021/12/04 16:06:00;;;;;;;6.53;3.25;;;23.00;43.80;;;;;;6158760;28;80913;-66
2021/12/04 16:09:01;;;;;;;3.35;2.78;;;23.00;44.30;;;;;;6157955;28;80454;-66
2021/12/04 16:12:01;;;;;;;7.72;3.00;;;23.00;44.40;;;;;;6158234;28;80078;-66
2021/12/04 16:15:02;;;;;;;6.90;2.97;;;23.00;44.80;;;;;;6153246;28;80424;-67
2021/12/04 16:18:02;;;;;;;6.72;2.53;;;23.00;44.80;;;;;;6156337;28;80963;-67
2021/12/04 16:21:03;;;;;;;4.20;2.50;;;23.00;44.80;;;;;;6160865;28;80828;-68
2021/12/04 16:24:06;;;;;;;4.20;2.63;;;23.00;44.60;;;;;;6159192;28;80287;-66
2021/12/04 16:27:18;;;;;;;5.70;2.55;;;22.90;44.60;;;;;;6155453;28;80325;-68
2021/12/04 16:36:42;;;;;;;5.68;2.40;;;22.90;44.70;;;;;;6154978;28;85101;-69
2021/12/04 16:39:43;;;;;;;4.95;3.20;;;22.90;45.20;;;;;;6151500;28;80936;-68
2021/12/04 16:42:44;;;;;;;7.18;2.90;;;22.90;45.40;;;;;;6156603;28;80930;-67
2021/12/04 16:45:44;;;;;;;4.00;2.90;;;22.90;45.00;;;;;;6161976;28;82095;-66
2021/12/04 16:48:46;;;;;;;5.32;2.45;;;22.90;45.60;;;;;;6155803;28;81829;-66
2021/12/04 16:55:20;;;;;;;13.27;7.10;;;22.90;45.80;;;;;;6154383;28;82074;-66
2021/12/04 16:58:20;;;;;;;64.93;29.75;;;22.90;45.20;;;;;;6157356;28;80549;-66
2021/12/04 17:01:21;;;;;;;129.10;64.78;;;22.80;45.40;;;;;;6154283;28;83141;-66
2021/12/04 17:04:21;;;;;;;164.75;78.90;;;22.90;45.60;;;;;;6152244;28;85812;-66
2021/12/04 17:07:22;;;;;;;124.72;62.60;;;22.80;45.60;;;;;;6152171;28;83988;-65
2021/12/04 17:10:23;;;;;;;102.82;49.85;;;22.90;45.80;;;;;;6152262;28;84117;-66
2021/12/04 17:13:23;;;;;;;88.15;40.72;;;22.90;45.40;;;;;;6152574;28;82817;-65
2021/12/04 17:16:30;;;;;;;67.85;33.13;;;22.80;45.20;;;;;;6153028;28;83168;-65
2021/12/04 17:19:30;;;;;;;54.35;26.15;;;22.80;45.50;;;;;;6151069;28;83201;-65
2021/12/04 17:22:31;;;;;;;39.25;20.33;;;22.80;45.50;;;;;;6152148;28;83505;-69
2021/12/04 17:25:33;;;;;;;36.35;18.63;;;22.80;46.10;;;;;;6153223;28;82927;-69
2021/12/04 17:28:35;;;;;;;29.55;14.40;;;22.80;46.20;;;;;;6154221;28;82884;-69
2021/12/04 17:31:36;;;;;;;57.10;29.17;;;22.80;46.60;;;;;;6154315;28;83016;-69
2021/12/04 17:34:36;;;;;;;199.82;91.85;;;22.80;46.20;;;;;;6152457;28;83223;-74
2021/12/04 17:37:37;;;;;;;174.57;81.25;;;22.80;46.70;;;;;;6148875;28;84007;-70
2021/12/04 17:40:37;;;;;;;254.98;119.50;;;22.80;46.00;;;;;;6151194;28;84182;-71
2021/12/04 17:43:38;;;;;;;265.52;122.00;;;22.80;45.60;;;;;;6152122;28;85992;-69
2021/12/04 17:46:38;;;;;;;216.63;104.57;;;22.80;45.50;;;;;;6143397;28;87793;-70
2021/12/04 17:49:39;;;;;;;188.00;85.47;;;22.80;45.30;;;;;;6148082;28;85611;-70
2021/12/04 17:52:39;;;;;;;145.52;66.78;;;22.80;44.90;;;;;;6154827;28;85622;-69
2021/12/04 17:55:40;;;;;;;121.63;57.45;;;22.80;45.30;;;;;;6152941;28;83416;-68
2021/12/04 17:58:41;;;;;;;106.65;49.63;;;22.80;45.40;;;;;;6152191;28;83904;-70
2021/12/04 18:01:46;;;;;;;88.38;41.08;;;22.80;44.90;;;;;;6153535;28;83861;-69
2021/12/04 18:04:46;;;;;;;65.40;31.45;;;22.80;44.50;;;;;;6152937;28;82990;-68
2021/12/04 18:07:47;;;;;;;66.22;28.73;;;22.80;44.10;;;;;;6150865;28;83664;-69
2021/12/04 18:10:49;;;;;;;55.78;24.92;;;22.80;44.00;;;;;;6150885;28;82933;-69
2021/12/04 18:13:51;;;;;;;42.75;21.65;;;22.80;44.10;;;;;;6147563;28;84324;-70
2021/12/04 18:16:52;;;;;;;32.33;16.85;;;22.80;44.10;;;;;;6153209;28;83871;-70
2021/12/04 18:19:52;;;;;;;30.88;14.63;;;22.80;44.30;;;;;;6155002;28;83564;-72
2021/12/04 18:22:53;;;;;;;27.83;13.35;;;22.80;43.90;;;;;;6153386;28;83128;-70
2021/12/04 18:25:53;;;;;;;21.58;11.20;;;22.80;44.30;;;;;;6151255;28;83005;-66
2021/12/04 18:28:54;;;;;;;19.85;10.82;;;22.90;43.90;;;;;;6155516;28;83371;-69
2021/12/04 18:31:54;;;;;;;20.85;10.88;;;22.80;43.50;;;;;;6160950;28;83185;-69
2021/12/04 18:34:55;;;;;;;23.83;11.85;;;22.80;42.70;;;;;;6157516;28;83270;-72
2021/12/04 18:37:55;;;;;;;22.38;10.35;;;22.80;42.00;;;;;;6155612;28;83545;-72
2021/12/04 18:40:56;;;;;;;19.15;9.63;;;22.90;41.70;;;;;;6152635;28;83581;-74
2021/12/04 18:43:57;;;;;;;17.35;10.02;;;22.90;41.10;;;;;;6150240;28;83888;-74
2021/12/04 18:46:58;;;;;;;21.25;10.60;;;23.00;40.70;;;;;;6154416;28;83664;-71
2021/12/04 18:49:58;;;;;;;20.17;9.45;;;23.10;40.30;;;;;;6157733;28;84059;-71
2021/12/04 18:52:59;;;;;;;19.17;10.07;;;23.20;39.70;;;;;;6160610;28;83065;-70
2021/12/04 18:55:59;;;;;;;18.67;10.13;;;23.20;39.20;;;;;;6148092;28;82703;-69
2021/12/04 18:59:00;;;;;;;19.00;10.38;;;23.20;38.80;;;;;;6147358;28;83004;-69
2021/12/04 19:02:03;;;;;;;18.48;10.13;;;23.20;38.10;;;;;;6150310;28;84494;-69
2021/12/04 19:05:04;;;;;;;18.40;9.63;;;23.30;37.30;;;;;;6149848;28;85877;-72
2021/12/04 19:08:04;;;;;;;18.05;10.40;;;23.30;36.70;;;;;;6153180;28;83050;-70